createdAt,value
2019-01-15T00:02:19.430Z,89.59
2019-01-15T00:04:48.223Z,89.10
2019-01-15T00:07:17.015Z,89.02
2019-01-15T00:09:45.819Z,89.57
2019-01-15T00:12:14.641Z,89.81
2019-01-15T00:14:43.440Z,89.22
2019-01-15T00:17:12.243Z,89.12
2019-01-15T00:19:41.038Z,88.66
2019-01-15T00:22:09.815Z,89.33
2019-01-15T00:24:38.656Z,89.50
2019-01-15T00:27:07.427Z,89.39
2019-01-15T00:29:36.791Z,89.30
2019-01-15T00:32:05.578Z,88.81
2019-01-15T00:34:34.579Z,89.09
2019-01-15T00:37:03.400Z,89.23
2019-01-15T00:39:32.209Z,89.70
2019-01-15T00:42:01.013Z,88.53
2019-01-15T00:44:29.797Z,89.82
2019-01-15T00:46:58.598Z,89.52
2019-01-15T00:49:27.402Z,89.08
2019-01-15T00:51:56.194Z,89.21
2019-01-15T00:54:24.981Z,88.88
2019-01-15T00:56:53.765Z,89.38
2019-01-15T00:59:22.619Z,89.37
2019-01-15T01:01:51.411Z,89.36
2019-01-15T01:04:20.254Z,89.43
2019-01-15T01:06:49.080Z,89.09
2019-01-15T01:09:17.931Z,89.61
2019-01-15T01:11:46.772Z,89.70
2019-01-15T01:14:15.632Z,89.34
2019-01-15T01:16:44.451Z,90.20
2019-01-15T01:19:13.298Z,89.91
2019-01-15T01:21:42.119Z,90.62
2019-01-15T01:24:10.968Z,89.81
2019-01-15T01:26:39.779Z,90.03
2019-01-15T01:29:08.601Z,89.77
2019-01-15T01:31:37.435Z,89.56
2019-01-15T01:34:06.281Z,90.67
2019-01-15T01:36:35.066Z,89.77
2019-01-15T01:39:05.428Z,90.20
2019-01-15T01:41:34.230Z,89.82
2019-01-15T01:44:03.103Z,90.15
2019-01-15T01:46:31.960Z,89.83
2019-01-15T01:49:00.759Z,90.59
2019-01-15T01:51:29.542Z,90.29
2019-01-15T01:53:58.328Z,90.23
2019-01-15T01:56:27.115Z,90.48
2019-01-15T01:58:55.990Z,89.61
2019-01-15T02:01:24.851Z,90.28
2019-01-15T02:03:53.653Z,90.14
2019-01-15T02:06:22.452Z,89.87
2019-01-15T02:08:51.321Z,90.08
2019-01-15T02:11:20.127Z,90.49
2019-01-15T02:13:48.920Z,89.94
2019-01-15T02:16:17.726Z,90.13
2019-01-15T02:18:46.546Z,89.48
2019-01-15T02:21:15.383Z,90.53
2019-01-15T02:23:44.188Z,89.64
2019-01-15T02:26:13.076Z,89.82
2019-01-15T02:28:48.346Z,90.82
2019-01-15T02:31:17.129Z,90.25
2019-01-15T02:33:45.920Z,90.75
2019-01-15T02:36:14.682Z,90.40
2019-01-15T02:38:43.462Z,91.05
2019-01-15T02:41:12.238Z,91.02
2019-01-15T02:43:41.022Z,90.90
2019-01-15T02:46:09.818Z,91.10
2019-01-15T02:48:38.603Z,90.84
2019-01-15T02:51:07.431Z,90.55
2019-01-15T02:53:36.278Z,90.98
2019-01-15T02:56:05.049Z,90.68
2019-01-15T02:58:33.897Z,90.97
2019-01-15T03:01:02.684Z,90.80
2019-01-15T03:03:31.558Z,91.32
2019-01-15T03:06:00.343Z,91.68
2019-01-15T03:08:29.198Z,91.12
2019-01-15T03:10:58.045Z,91.30
2019-01-15T03:13:26.932Z,91.68
2019-01-15T03:16:02.506Z,92.03
2019-01-15T03:18:31.298Z,91.57
2019-01-15T03:21:00.055Z,92.18
2019-01-15T03:23:28.858Z,91.88
2019-01-15T03:25:57.629Z,92.21
2019-01-15T03:28:26.463Z,91.44
2019-01-15T03:30:55.240Z,92.00
2019-01-15T03:33:24.092Z,92.78
2019-01-15T03:35:52.961Z,92.86
2019-01-15T03:38:21.883Z,92.98
2019-01-15T03:40:50.672Z,92.56
2019-01-15T03:43:19.481Z,92.23
2019-01-15T03:45:48.265Z,92.65
2019-01-15T03:48:23.376Z,93.31
2019-01-15T03:50:52.172Z,92.45
2019-01-15T03:53:21.031Z,92.86
2019-01-15T03:55:49.835Z,93.03
2019-01-15T03:58:18.623Z,93.67
2019-01-15T04:00:47.688Z,93.49
2019-01-15T04:03:16.489Z,94.19
2019-01-15T04:05:45.266Z,94.31
2019-01-15T04:08:14.051Z,93.94
2019-01-15T04:10:42.838Z,93.84
2019-01-15T04:13:11.704Z,94.49
2019-01-15T04:15:40.418Z,94.89
2019-01-15T04:18:09.223Z,94.77
2019-01-15T04:20:38.025Z,93.73
2019-01-15T04:23:06.812Z,94.54
2019-01-15T04:25:37.269Z,93.67
2019-01-15T04:28:04.443Z,94.80
2019-01-15T04:30:33.374Z,94.33
2019-01-15T04:33:02.164Z,93.87
2019-01-15T04:35:31.012Z,94.26
2019-01-15T04:37:59.813Z,94.01
2019-01-15T04:40:28.612Z,94.12
2019-01-15T04:42:57.444Z,94.20
2019-01-15T04:45:26.231Z,94.40
2019-01-15T04:47:55.003Z,94.26
2019-01-15T04:50:23.815Z,93.63
2019-01-15T04:52:57.154Z,93.86
2019-01-15T04:55:26.998Z,94.58
2019-01-15T04:57:56.050Z,93.83
2019-01-15T05:00:24.877Z,94.04
2019-01-15T05:02:54.101Z,94.19
2019-01-15T05:05:22.896Z,93.64
2019-01-15T05:07:51.672Z,93.93
2019-01-15T05:10:20.467Z,94.33
2019-01-15T05:12:49.283Z,94.38
2019-01-15T05:15:18.072Z,93.75
2019-01-15T05:17:46.870Z,94.34
2019-01-15T05:20:16.170Z,94.05
2019-01-15T05:22:45.060Z,94.25
2019-01-15T05:25:17.792Z,94.06
2019-01-15T05:27:46.571Z,94.69
2019-01-15T05:30:17.917Z,94.29
2019-01-15T05:32:46.767Z,94.28
2019-01-15T05:35:15.658Z,94.74
2019-01-15T05:37:44.453Z,94.80
2019-01-15T05:40:13.243Z,94.25
2019-01-15T05:42:42.033Z,94.63
2019-01-15T05:45:12.737Z,94.03
2019-01-15T05:47:41.511Z,94.59
2019-01-15T05:50:11.588Z,94.23
2019-01-15T05:52:40.375Z,94.42
2019-01-15T05:55:09.200Z,94.36
2019-01-15T05:57:38.104Z,94.10
2019-01-15T06:00:06.899Z,94.62
2019-01-15T06:02:35.678Z,94.11
2019-01-15T06:05:05.361Z,94.52
2019-01-15T06:07:34.156Z,94.32
2019-01-15T06:10:02.974Z,94.39
2019-01-15T06:12:31.820Z,94.89
2019-01-15T06:15:00.600Z,94.43
2019-01-15T06:17:29.402Z,94.26
2019-01-15T06:19:59.216Z,94.24
2019-01-15T06:22:27.995Z,94.81
2019-01-15T06:24:56.788Z,94.76
2019-01-15T06:27:25.603Z,94.37
2019-01-15T06:29:54.406Z,94.25
2019-01-15T06:32:23.239Z,94.15
2019-01-15T06:34:52.055Z,95.06
2019-01-15T06:37:20.907Z,94.36
2019-01-15T06:39:49.751Z,95.05
2019-01-15T06:42:18.571Z,95.28
2019-01-15T06:44:47.382Z,94.99
2019-01-15T06:47:16.206Z,94.49
2019-01-15T06:49:45.076Z,94.37
2019-01-15T06:52:13.911Z,94.60
2019-01-15T06:54:42.723Z,94.89
2019-01-15T06:57:11.595Z,94.31
2019-01-15T06:59:40.500Z,94.69
2019-01-15T07:02:09.390Z,94.74
2019-01-15T07:04:43.976Z,94.82
2019-01-15T07:07:09.954Z,94.42
2019-01-15T07:09:38.746Z,94.37
2019-01-15T07:12:07.541Z,94.44
2019-01-15T07:14:36.340Z,95.03
2019-01-15T07:17:05.187Z,94.46
2019-01-15T07:19:33.915Z,94.50
2019-01-15T07:22:02.721Z,95.07
2019-01-15T07:24:31.528Z,94.87
2019-01-15T07:27:00.354Z,94.49
2019-01-15T07:29:29.434Z,94.93
2019-01-15T07:31:58.216Z,94.38
2019-01-15T07:34:27.004Z,95.14
2019-01-15T07:36:55.838Z,95.14
2019-01-15T07:39:24.651Z,95.14
2019-01-15T07:41:53.498Z,94.85
2019-01-15T07:44:22.389Z,95.18
2019-01-15T07:46:51.233Z,94.75
2019-01-15T07:49:20.111Z,94.62
2019-01-15T07:51:49.195Z,95.27
2019-01-15T07:54:17.993Z,94.74
2019-01-15T07:56:46.791Z,94.85
2019-01-15T07:59:15.604Z,94.89
2019-01-15T08:01:44.443Z,94.42
2019-01-15T08:04:13.308Z,94.54
2019-01-15T08:06:42.103Z,95.04
2019-01-15T08:09:11.902Z,94.64
2019-01-15T08:11:39.972Z,94.34
2019-01-15T08:14:12.082Z,94.25
2019-01-15T08:16:38.323Z,93.97
2019-01-15T08:19:07.116Z,94.14
2019-01-15T08:21:35.920Z,93.88
2019-01-15T08:24:04.811Z,94.37
2019-01-15T08:26:33.654Z,93.95
2019-01-15T08:29:02.466Z,94.34
2019-01-15T08:31:31.330Z,94.19
2019-01-15T08:34:00.104Z,93.89
2019-01-15T08:36:28.948Z,93.81
2019-01-15T08:38:57.748Z,93.79
2019-01-15T08:41:26.588Z,93.24
2019-01-15T08:43:55.400Z,93.32
2019-01-15T08:46:24.218Z,93.09
2019-01-15T08:48:53.019Z,92.80
2019-01-15T08:51:21.800Z,93.32
2019-01-15T08:53:50.599Z,93.07
2019-01-15T08:56:19.421Z,92.58
2019-01-15T08:58:48.240Z,93.18
2019-01-15T09:01:17.072Z,92.50
2019-01-15T09:03:45.925Z,92.51
2019-01-15T09:06:14.708Z,92.44
2019-01-15T09:08:43.608Z,92.83
2019-01-15T09:11:12.397Z,92.60
2019-01-15T09:13:41.192Z,92.39
2019-01-15T09:16:10.012Z,92.70
2019-01-15T09:18:38.824Z,92.54
2019-01-15T09:21:07.667Z,93.04
2019-01-15T09:23:36.478Z,92.17
2019-01-15T09:26:05.267Z,92.24
2019-01-15T09:28:34.093Z,91.52
2019-01-15T09:31:02.878Z,91.85
2019-01-15T09:33:31.767Z,91.87
2019-01-15T09:36:00.580Z,91.64
2019-01-15T09:38:29.383Z,91.15
2019-01-15T09:40:58.211Z,90.33
2019-01-15T09:43:27.044Z,90.78
2019-01-15T09:45:55.837Z,90.47
2019-01-15T09:48:27.306Z,90.72
2019-01-15T09:50:56.735Z,90.62
2019-01-15T09:53:25.581Z,90.53
2019-01-15T09:55:54.341Z,90.42
2019-01-15T09:58:24.116Z,90.22
2019-01-15T10:00:52.965Z,89.54
2019-01-15T10:03:24.807Z,89.64
2019-01-15T10:05:53.643Z,90.06
2019-01-15T10:08:22.492Z,89.99
2019-01-15T10:10:51.333Z,89.69
2019-01-15T10:13:20.111Z,89.90
2019-01-15T10:15:48.914Z,89.73
2019-01-15T10:18:17.691Z,89.69
2019-01-15T10:20:46.500Z,89.44
2019-01-15T10:23:15.310Z,89.12
2019-01-15T10:25:44.122Z,89.26
2019-01-15T10:28:12.899Z,88.60
2019-01-15T10:30:48.727Z,89.08
2019-01-15T10:33:24.360Z,88.66
2019-01-15T10:35:53.324Z,88.79
2019-01-15T10:38:22.739Z,88.21
2019-01-15T10:40:51.546Z,88.83
2019-01-15T10:43:20.369Z,88.68
2019-01-15T10:45:49.144Z,88.37
2019-01-15T10:48:17.950Z,88.27
2019-01-15T10:50:46.760Z,88.87
2019-01-15T10:53:15.552Z,88.54
2019-01-15T10:55:44.371Z,88.01
2019-01-15T10:58:17.533Z,88.02
2019-01-15T11:00:42.021Z,87.69
2019-01-15T11:03:10.834Z,87.65
2019-01-15T11:05:39.924Z,87.95
2019-01-15T11:08:08.775Z,87.93
2019-01-15T11:10:37.549Z,88.18
2019-01-15T11:13:06.342Z,87.60
2019-01-15T11:15:35.136Z,87.71
2019-01-15T11:18:04.079Z,87.37
2019-01-15T11:20:32.883Z,87.83
2019-01-15T11:23:01.701Z,87.38
2019-01-15T11:25:30.546Z,87.35
2019-01-15T11:27:59.340Z,87.27
2019-01-15T11:30:28.142Z,87.04
2019-01-15T11:32:57.624Z,86.74
2019-01-15T11:35:27.243Z,87.17
2019-01-15T11:37:57.886Z,87.25
2019-01-15T11:40:26.652Z,87.19
2019-01-15T11:42:55.471Z,86.76
2019-01-15T11:45:24.240Z,86.85
2019-01-15T11:47:53.027Z,86.84
2019-01-15T11:50:21.885Z,86.82
2019-01-15T11:52:50.704Z,87.13
2019-01-15T11:55:21.193Z,87.07
2019-01-15T11:57:48.319Z,86.91
2019-01-15T12:00:23.788Z,86.40
2019-01-15T12:02:58.807Z,86.92
2019-01-15T12:05:33.053Z,86.55
2019-01-15T12:08:07.331Z,86.25
2019-01-15T12:10:44.260Z,86.45
2019-01-15T12:14:16.210Z,86.92
2019-01-15T12:17:49.850Z,86.40
2019-01-15T12:20:24.079Z,86.86
2019-01-15T12:23:00.962Z,86.95
2019-01-15T12:25:33.924Z,86.77
2019-01-15T12:28:08.899Z,86.68
2019-01-15T12:31:41.447Z,87.04
2019-01-15T12:34:15.419Z,86.52
2019-01-15T12:36:49.479Z,86.51
2019-01-15T12:39:23.602Z,86.69
2019-01-15T12:41:56.551Z,86.74
2019-01-15T12:45:37.100Z,86.15
2019-01-15T12:48:11.350Z,86.45
2019-01-15T12:50:45.426Z,86.23
2019-01-15T12:53:19.706Z,86.16
2019-01-15T12:55:53.648Z,85.80
2019-01-15T12:58:59.074Z,86.32
2019-01-15T13:03:36.532Z,85.84
2019-01-15T13:06:13.520Z,85.57
2019-01-15T13:08:47.637Z,85.49
2019-01-15T13:11:32.961Z,85.06
2019-01-15T13:14:13.981Z,85.23
2019-01-15T13:16:47.946Z,85.67
2019-01-15T13:19:22.139Z,85.22
2019-01-15T13:21:57.077Z,85.28
2019-01-15T13:24:31.156Z,85.35
2019-01-15T13:28:03.147Z,85.35
2019-01-15T13:31:34.782Z,85.29
2019-01-15T13:34:09.704Z,84.84
2019-01-15T13:36:43.663Z,84.92
2019-01-15T13:39:17.639Z,85.24
2019-01-15T13:41:53.598Z,84.88
2019-01-15T13:44:43.306Z,85.00
2019-01-15T13:47:16.048Z,84.97
2019-01-15T13:49:50.920Z,84.92
2019-01-15T13:52:28.770Z,85.09
2019-01-15T13:55:04.630Z,85.03
2019-01-15T13:59:42.223Z,84.51
2019-01-15T14:02:16.109Z,84.47
2019-01-15T14:04:50.302Z,84.79
2019-01-15T14:07:25.975Z,84.47
2019-01-15T14:09:58.991Z,84.96
2019-01-15T14:12:39.057Z,84.68
2019-01-15T14:15:18.839Z,84.97
2019-01-15T14:17:53.680Z,84.79
2019-01-15T14:20:27.880Z,84.67
2019-01-15T14:23:02.730Z,84.57
2019-01-15T14:25:36.783Z,84.70
2019-01-15T14:29:10.888Z,84.73
2019-01-15T14:31:50.893Z,84.23
2019-01-15T14:36:28.708Z,84.69
2019-01-15T14:39:02.632Z,84.58
2019-01-15T14:43:43.434Z,84.38
2019-01-15T14:48:25.379Z,84.40
2019-01-15T14:51:02.374Z,84.41
2019-01-15T14:53:36.196Z,84.73
2019-01-15T14:56:10.268Z,84.84
2019-01-15T14:59:48.012Z,85.07
2019-01-15T15:02:25.943Z,84.70
2019-01-15T15:07:02.896Z,84.81
2019-01-15T15:09:38.871Z,84.73
2019-01-15T15:14:19.773Z,85.42
2019-01-15T15:17:57.750Z,84.65
2019-01-15T15:20:33.182Z,85.12
2019-01-15T15:23:07.943Z,85.24
2019-01-15T15:25:41.776Z,85.43
2019-01-15T15:29:14.579Z,85.33
2019-01-15T15:31:48.796Z,85.24
2019-01-15T15:34:30.671Z,85.41
2019-01-15T15:37:12.559Z,85.37
2019-01-15T15:39:51.638Z,85.43
2019-01-15T15:42:57.023Z,85.54
2019-01-15T15:45:37.084Z,85.09
2019-01-15T15:48:11.355Z,85.28
2019-01-15T15:50:45.518Z,85.31
2019-01-15T15:54:18.224Z,85.30
2019-01-15T15:56:52.520Z,85.66
2019-01-15T15:59:25.524Z,85.34
2019-01-15T16:04:05.163Z,85.77
2019-01-15T16:06:40.077Z,85.39
2019-01-15T16:09:16.695Z,85.46
2019-01-15T16:11:52.956Z,85.66
2019-01-15T16:14:29.785Z,86.20
2019-01-15T16:17:16.517Z,85.53
2019-01-15T16:20:03.128Z,85.49
2019-01-15T16:22:38.662Z,85.49
2019-01-15T16:25:16.424Z,85.73
2019-01-15T16:28:55.098Z,85.63
2019-01-15T16:32:35.262Z,85.61
2019-01-15T16:35:08.852Z,85.43
2019-01-15T16:39:45.445Z,86.15
2019-01-15T16:42:21.974Z,85.99
2019-01-15T16:44:54.993Z,85.95
2019-01-15T16:47:27.959Z,86.21
2019-01-15T16:50:36.454Z,85.94
2019-01-15T16:53:18.455Z,85.93
2019-01-15T16:55:56.288Z,86.21
2019-01-15T16:58:30.410Z,86.47
2019-01-15T17:01:05.260Z,86.36
2019-01-15T17:03:41.258Z,86.14
2019-01-15T17:06:16.204Z,86.16
2019-01-15T17:08:54.044Z,86.15
2019-01-15T17:11:27.511Z,86.10
2019-01-15T17:14:01.645Z,86.35
2019-01-15T17:18:43.808Z,86.64
2019-01-15T17:21:20.767Z,85.86
2019-01-15T17:23:55.703Z,86.38
2019-01-15T17:26:29.543Z,86.50
2019-01-15T17:29:11.614Z,86.77
2019-01-15T17:31:50.639Z,86.47
2019-01-15T17:34:29.521Z,86.66
2019-01-15T17:37:02.471Z,86.03
2019-01-15T17:39:37.471Z,86.06
2019-01-15T17:42:11.734Z,86.43
2019-01-15T17:44:44.704Z,86.27
2019-01-15T17:47:18.493Z,86.23
2019-01-15T17:49:54.524Z,86.35
2019-01-15T17:52:32.411Z,87.19
2019-01-15T17:55:06.576Z,86.42
2019-01-15T17:57:41.547Z,86.36
2019-01-15T18:00:26.635Z,86.13
2019-01-15T18:02:59.631Z,86.02
2019-01-15T18:05:33.807Z,86.30
2019-01-15T18:08:11.828Z,86.04
2019-01-15T18:10:45.931Z,86.18
2019-01-15T18:13:20.902Z,86.20
2019-01-15T18:15:57.845Z,86.35
2019-01-15T18:18:32.848Z,86.24
2019-01-15T18:21:12.930Z,86.03
2019-01-15T18:25:52.727Z,86.29
2019-01-15T18:30:33.400Z,85.66
2019-01-15T18:35:12.233Z,85.87
2019-01-15T18:37:49.181Z,86.41
2019-01-15T18:40:26.055Z,86.75
2019-01-15T18:44:03.019Z,86.84
2019-01-15T18:46:40.914Z,86.42
2019-01-15T18:49:19.964Z,86.67
2019-01-15T18:51:54.175Z,86.55
2019-01-15T18:55:31.098Z,86.79
2019-01-15T18:58:05.375Z,86.74
2019-01-15T19:01:11.747Z,86.66
2019-01-15T19:05:50.811Z,86.65
2019-01-15T19:08:24.815Z,86.06
2019-01-15T19:11:01.606Z,86.67
2019-01-15T19:13:37.586Z,86.77
2019-01-15T19:16:18.588Z,87.12
2019-01-15T19:18:52.811Z,86.96
2019-01-15T19:21:27.745Z,86.79
2019-01-15T19:24:08.800Z,86.45
2019-01-15T19:26:43.003Z,86.54
2019-01-15T19:29:16.815Z,86.76
2019-01-15T19:31:54.924Z,86.93
2019-01-15T19:34:36.915Z,86.67
2019-01-15T19:37:10.078Z,86.63
2019-01-15T19:39:44.068Z,86.34
2019-01-15T19:42:18.205Z,86.32
2019-01-15T19:44:57.176Z,86.36
2019-01-15T19:47:33.119Z,86.30
2019-01-15T19:51:07.924Z,86.79
2019-01-15T19:53:46.847Z,86.55
2019-01-15T19:56:20.823Z,86.56
2019-01-15T20:00:58.647Z,86.54
2019-01-15T20:03:47.891Z,86.05
2019-01-15T20:06:26.072Z,86.27
2019-01-15T20:08:59.032Z,86.39
2019-01-15T20:12:03.364Z,86.26
2019-01-15T20:15:34.920Z,86.22
2019-01-15T20:18:15.813Z,86.16
2019-01-15T20:21:03.952Z,86.38
2019-01-15T20:23:39.787Z,86.22
2019-01-15T20:26:14.072Z,86.01
2019-01-15T20:28:54.995Z,85.99
2019-01-15T20:31:37.124Z,85.97
2019-01-15T20:36:14.165Z,86.19
2019-01-15T20:38:51.213Z,85.78
2019-01-15T20:41:29.259Z,85.51
2019-01-15T20:44:11.215Z,86.33
2019-01-15T20:46:45.373Z,86.04
2019-01-15T20:49:20.303Z,86.19
2019-01-15T20:51:53.268Z,85.41
2019-01-15T20:54:26.246Z,85.60
2019-01-15T20:57:59.888Z,85.31
2019-01-15T21:00:34.881Z,85.21
2019-01-15T21:03:08.942Z,85.82
2019-01-15T21:05:42.932Z,85.23
2019-01-15T21:08:17.291Z,85.42
2019-01-15T21:10:50.250Z,85.89
2019-01-15T21:13:28.143Z,85.29
2019-01-15T21:16:01.965Z,85.39
2019-01-15T21:18:39.961Z,84.96
2019-01-15T21:23:20.623Z,85.14
2019-01-15T21:25:56.919Z,85.27
2019-01-15T21:28:36.098Z,85.01
2019-01-15T21:31:13.964Z,85.20
2019-01-15T21:33:48.195Z,85.06
2019-01-15T21:36:26.005Z,85.17
2019-01-15T21:39:59.762Z,85.23
2019-01-15T21:43:34.506Z,85.19
2019-01-15T21:46:11.608Z,84.37
2019-01-15T21:49:49.235Z,84.56
2019-01-15T21:53:23.165Z,85.07
2019-01-15T21:55:58.040Z,84.73
2019-01-15T21:58:31.047Z,85.08
2019-01-15T22:02:04.060Z,84.65
2019-01-15T22:04:38.248Z,84.77
2019-01-15T22:07:11.259Z,84.87
2019-01-15T22:09:46.244Z,84.85
2019-01-15T22:12:25.201Z,84.98
2019-01-15T22:15:05.774Z,85.08
2019-01-15T22:17:39.691Z,84.68
2019-01-15T22:20:22.071Z,85.14
2019-01-15T22:22:56.289Z,85.11
2019-01-15T22:25:30.381Z,85.11
2019-01-15T22:28:03.347Z,84.69
2019-01-15T22:30:43.316Z,84.54
2019-01-15T22:33:20.287Z,84.62
2019-01-15T22:35:59.313Z,84.60
2019-01-15T22:38:35.118Z,84.58
2019-01-15T22:41:09.295Z,84.25
2019-01-15T22:43:45.215Z,84.81
2019-01-15T22:46:19.111Z,84.33
2019-01-15T22:48:52.075Z,84.54
2019-01-15T22:51:26.324Z,84.95
2019-01-15T22:54:00.347Z,84.65
2019-01-15T22:56:35.205Z,85.13
2019-01-15T22:59:09.366Z,84.19
2019-01-15T23:02:43.268Z,84.45
2019-01-15T23:05:17.460Z,84.38
2019-01-15T23:07:57.355Z,84.67
2019-01-15T23:10:31.178Z,84.73
2019-01-15T23:13:05.114Z,85.44
2019-01-15T23:15:39.332Z,85.15
2019-01-15T23:18:16.246Z,84.79
2019-01-15T23:20:57.262Z,84.61
2019-01-15T23:23:45.309Z,85.15
2019-01-15T23:27:16.934Z,85.08
2019-01-15T23:29:50.827Z,84.89
2019-01-15T23:34:28.259Z,85.37
2019-01-15T23:37:32.698Z,85.08
2019-01-15T23:40:06.948Z,85.23
2019-01-15T23:42:39.947Z,85.47
2019-01-15T23:45:14.732Z,85.73
2019-01-15T23:47:48.782Z,85.61
2019-01-15T23:50:23.775Z,85.47
2019-01-15T23:52:57.631Z,85.38
2019-01-15T23:55:31.652Z,85.31
2019-01-15T23:58:05.837Z,85.56
